Terminal Aerodrome Forecast
Issued by NWS

Home | Current Version | Previous Version | Text Only | Print | Product List | Glossary Off
Versions: 1 2 3 4 5 6 7 8 9 10 11 12 13 14 15 16 17 18 19 20 21 22 23 24 25 26

000
FTUS43 KGRB 132323
TAFAUW
TAF
KAUW 132323Z 1400/1424 01010G16KT P6SM -SHSN SCT020 BKN035
      TEMPO 1400/1402 4SM -SHSN OVC020
     FM140300 36005KT 6SM -SHSN BKN035
     FM140400 33003KT P6SM SCT035
     FM141000 29003KT P6SM BKN030
     FM141300 26003KT P6SM BKN024
     FM141800 27005KT P6SM BKN018=

USA.gov is the U.S. government's official web portal to all federal, state and local government web resources and services.